Terminal Aerodrome Forecast
Issued by NWS

Home | Current Version | Previous Version | Graphics & Text | Print | Product List | Glossary On
Versions: 1 2 3 4 5 6 7 8 9 10 11 12 13 14 15
328
FTUS43 KFGF 212340
TAFBJI
TAF
KBJI 212340Z 2200/2224 17008KT P6SM BKN070
     FM221000 VRB03KT P6SM OVC030
     FM221700 18005KT P6SM BKN035=

USA.gov is the U.S. government's official web portal to all federal, state and local government web resources and services.